createdAt,value
2023-05-22T00:01:46.785Z,14.94
2023-05-22T00:04:13.634Z,14.79
2023-05-22T00:06:42.790Z,14.86
2023-05-22T00:09:09.317Z,14.88
2023-05-22T00:11:35.933Z,14.89
2023-05-22T00:14:02.856Z,14.89
2023-05-22T00:16:29.486Z,14.86
2023-05-22T00:18:57.609Z,14.85
2023-05-22T00:21:24.470Z,14.80
2023-05-22T00:23:50.989Z,14.73
2023-05-22T00:26:17.535Z,14.71
2023-05-22T00:28:44.113Z,14.68
2023-05-22T00:31:10.664Z,14.66
2023-05-22T00:33:37.231Z,14.66
2023-05-22T00:36:05.951Z,14.63
2023-05-22T00:38:34.022Z,14.60
2023-05-22T00:41:01.317Z,14.56
2023-05-22T00:43:28.087Z,14.54
2023-05-22T00:45:54.959Z,14.48
2023-05-22T00:48:21.645Z,14.44
2023-05-22T00:50:48.933Z,14.41
2023-05-22T00:53:20.208Z,14.44
2023-05-22T00:55:47.783Z,14.40
2023-05-22T00:58:17.518Z,14.38
2023-05-22T01:00:45.189Z,14.38
2023-05-22T01:03:12.300Z,14.38
2023-05-22T01:05:40.405Z,14.32
2023-05-22T01:08:08.399Z,14.29
2023-05-22T01:10:38.885Z,14.25
2023-05-22T01:13:14.497Z,14.21
2023-05-22T01:15:47.262Z,14.19
2023-05-22T01:18:20.363Z,14.16
2023-05-22T01:20:52.675Z,14.14
2023-05-22T01:24:01.737Z,14.12
2023-05-22T01:27:09.667Z,14.06
2023-05-22T01:29:55.827Z,13.99
2023-05-22T01:32:25.702Z,13.91
2023-05-22T01:34:55.037Z,13.86
2023-05-22T01:37:23.120Z,13.84
2023-05-22T01:39:52.249Z,13.91
2023-05-22T01:42:19.508Z,13.91
2023-05-22T01:44:48.243Z,13.88
2023-05-22T01:47:15.569Z,13.81
2023-05-22T01:49:44.294Z,13.81
2023-05-22T01:52:15.775Z,13.78
2023-05-22T01:54:46.096Z,13.71
2023-05-22T01:57:18.690Z,13.72
2023-05-22T01:59:48.778Z,13.77
2023-05-22T02:02:18.355Z,13.54
2023-05-22T02:04:51.726Z,13.70
2023-05-22T02:07:20.921Z,13.62
2023-05-22T02:09:50.561Z,13.63
2023-05-22T02:12:17.636Z,13.61
2023-05-22T02:14:44.831Z,13.44
2023-05-22T02:17:11.438Z,13.61
2023-05-22T02:19:38.078Z,13.60
2023-05-22T02:22:06.980Z,13.65
2023-05-22T02:24:36.658Z,13.65
2023-05-22T02:27:03.434Z,13.61
2023-05-22T02:29:30.064Z,13.58
2023-05-22T02:31:56.670Z,13.55
2023-05-22T02:34:26.191Z,13.56
2023-05-22T02:36:52.808Z,13.55
2023-05-22T02:39:20.800Z,13.55
2023-05-22T02:41:47.412Z,13.57
2023-05-22T02:44:14.039Z,13.53
2023-05-22T02:46:40.685Z,13.51
2023-05-22T02:49:07.718Z,13.50
2023-05-22T02:51:34.312Z,13.51
2023-05-22T02:54:00.908Z,13.50
2023-05-22T02:56:28.833Z,13.50
2023-05-22T02:58:55.536Z,13.43
2023-05-22T03:01:22.167Z,13.30
2023-05-22T03:03:49.256Z,13.33
2023-05-22T03:06:15.879Z,13.32
2023-05-22T03:08:42.468Z,13.20
2023-05-22T03:11:09.545Z,13.33
2023-05-22T03:13:37.461Z,13.35
2023-05-22T03:16:04.560Z,13.36
2023-05-22T03:18:32.321Z,13.37
2023-05-22T03:20:59.087Z,13.42
2023-05-22T03:23:25.653Z,13.38
2023-05-22T03:25:52.986Z,13.34
2023-05-22T03:28:20.672Z,13.32
2023-05-22T03:30:48.964Z,13.22
2023-05-22T03:33:20.513Z,13.24
2023-05-22T03:35:47.330Z,13.30
2023-05-22T03:38:14.056Z,13.33
2023-05-22T03:40:41.035Z,13.31
2023-05-22T03:43:08.828Z,13.31
2023-05-22T03:45:35.563Z,13.27
2023-05-22T03:48:05.205Z,13.20
2023-05-22T03:50:31.923Z,13.23
2023-05-22T03:52:58.459Z,13.25
2023-05-22T03:55:25.107Z,13.26
2023-05-22T03:57:51.663Z,13.30
2023-05-22T04:00:19.161Z,13.31
2023-05-22T04:02:45.792Z,13.36
2023-05-22T04:05:14.623Z,13.34
2023-05-22T04:07:41.250Z,13.34
2023-05-22T04:10:08.454Z,13.32
2023-05-22T04:12:35.030Z,13.31
2023-05-22T04:15:01.871Z,13.32
2023-05-22T04:17:32.064Z,13.32
2023-05-22T04:19:58.775Z,13.33
2023-05-22T04:22:26.789Z,13.36
2023-05-22T04:24:54.006Z,13.42
2023-05-22T04:27:20.581Z,13.30
2023-05-22T04:29:47.183Z,13.53
2023-05-22T04:32:13.836Z,13.58
2023-05-22T04:34:40.467Z,13.62
2023-05-22T04:37:07.031Z,13.69
2023-05-22T04:39:35.021Z,13.44
2023-05-22T04:42:01.687Z,13.80
2023-05-22T04:44:28.343Z,13.80
2023-05-22T04:46:55.001Z,13.80
2023-05-22T04:49:21.723Z,13.84
2023-05-22T04:51:48.317Z,13.94
2023-05-22T04:54:15.033Z,13.96
2023-05-22T04:56:42.985Z,14.00
2023-05-22T04:59:09.690Z,14.07
2023-05-22T05:01:38.437Z,14.10
2023-05-22T05:04:05.239Z,13.92
2023-05-22T05:06:31.872Z,14.21
2023-05-22T05:08:58.552Z,14.22
2023-05-22T05:11:25.141Z,14.34
2023-05-22T05:13:53.208Z,14.39
2023-05-22T05:16:19.830Z,14.33
2023-05-22T05:18:46.598Z,14.42
2023-05-22T05:21:13.592Z,14.48
2023-05-22T05:23:40.957Z,14.41
2023-05-22T05:26:07.584Z,14.52
2023-05-22T05:28:34.215Z,14.63
2023-05-22T05:31:02.792Z,14.66
2023-05-22T05:33:47.847Z,14.75
2023-05-22T05:36:25.833Z,14.77
2023-05-22T05:38:52.817Z,14.88
2023-05-22T05:41:19.410Z,14.95
2023-05-22T05:43:50.464Z,15.05
2023-05-22T05:46:19.488Z,15.11
2023-05-22T05:48:47.412Z,15.22
2023-05-22T05:51:14.495Z,15.34
2023-05-22T05:53:42.652Z,15.45
2023-05-22T05:56:10.112Z,15.56
2023-05-22T05:58:37.840Z,15.67
2023-05-22T06:01:34.222Z,15.64
2023-05-22T06:04:01.931Z,15.85
2023-05-22T06:06:32.021Z,15.91
2023-05-22T06:09:19.038Z,16.10
2023-05-22T06:12:09.840Z,16.21
2023-05-22T06:14:36.763Z,16.32
2023-05-22T06:17:05.038Z,16.43
2023-05-22T06:19:31.850Z,16.51
2023-05-22T06:21:58.504Z,16.64
2023-05-22T06:24:25.142Z,16.77
2023-05-22T06:26:51.983Z,16.88
2023-05-22T06:29:18.653Z,17.03
2023-05-22T06:31:46.632Z,17.17
2023-05-22T06:34:17.658Z,17.31
2023-05-22T06:36:44.487Z,17.42
2023-05-22T06:39:12.051Z,17.56
2023-05-22T06:42:03.664Z,17.70
2023-05-22T06:44:50.422Z,17.83
2023-05-22T06:47:17.084Z,17.92
2023-05-22T06:49:45.182Z,17.97
2023-05-22T06:52:12.137Z,18.04
2023-05-22T06:54:39.142Z,18.12
2023-05-22T06:57:05.926Z,18.20
2023-05-22T06:59:32.579Z,18.17
2023-05-22T07:02:01.903Z,18.28
2023-05-22T07:04:59.430Z,18.34
2023-05-22T07:07:34.005Z,18.42
2023-05-22T07:10:02.975Z,18.41
2023-05-22T07:12:30.057Z,18.45
2023-05-22T07:14:56.965Z,18.39
2023-05-22T07:17:25.489Z,18.42
2023-05-22T07:19:52.919Z,18.39
2023-05-22T07:22:21.088Z,18.37
2023-05-22T07:24:48.585Z,18.44
2023-05-22T07:27:17.290Z,18.50
2023-05-22T07:29:46.819Z,18.57
2023-05-22T07:32:13.452Z,18.64
2023-05-22T07:34:41.195Z,18.67
2023-05-22T07:37:11.151Z,18.71
2023-05-22T07:39:39.834Z,18.77
2023-05-22T07:42:07.578Z,18.77
2023-05-22T07:44:40.410Z,18.85
2023-05-22T07:47:07.208Z,18.96
2023-05-22T07:49:34.884Z,18.97
2023-05-22T07:52:01.819Z,19.02
2023-05-22T07:54:28.783Z,19.12
2023-05-22T07:56:56.825Z,19.20
2023-05-22T07:59:26.212Z,19.21
2023-05-22T08:01:58.297Z,19.32
2023-05-22T08:04:25.351Z,19.28
2023-05-22T08:06:52.097Z,19.37
2023-05-22T08:09:18.871Z,19.45
2023-05-22T08:11:45.421Z,19.61
2023-05-22T08:14:13.432Z,19.69
2023-05-22T08:16:40.095Z,19.72
2023-05-22T08:19:07.286Z,19.91
2023-05-22T08:21:34.371Z,19.92
2023-05-22T08:24:01.100Z,20.07
2023-05-22T08:26:30.052Z,20.20
2023-05-22T08:28:58.146Z,20.38
2023-05-22T08:31:26.128Z,20.36
2023-05-22T08:33:52.826Z,20.47
2023-05-22T08:36:19.661Z,20.51
2023-05-22T08:38:46.275Z,20.67
2023-05-22T08:41:13.977Z,20.85
2023-05-22T08:43:41.479Z,20.94
2023-05-22T08:46:09.559Z,20.98
2023-05-22T08:48:38.393Z,20.74
2023-05-22T08:51:05.544Z,21.06
2023-05-22T08:53:34.959Z,21.19
2023-05-22T08:56:02.932Z,21.21
2023-05-22T08:58:30.361Z,21.22
2023-05-22T09:00:58.241Z,21.40
2023-05-22T09:03:26.963Z,21.58
2023-05-22T09:05:55.068Z,21.73
2023-05-22T09:08:21.625Z,21.91
2023-05-22T09:10:48.283Z,22.02
2023-05-22T09:13:24.572Z,22.22
2023-05-22T09:15:51.521Z,22.27
2023-05-22T09:18:18.290Z,22.26
2023-05-22T09:20:45.027Z,22.46
2023-05-22T09:23:13.668Z,22.60
2023-05-22T09:25:42.010Z,22.53
2023-05-22T09:28:08.744Z,22.64
2023-05-22T09:30:35.439Z,22.65
2023-05-22T09:33:02.260Z,22.82
2023-05-22T09:35:32.024Z,22.88
2023-05-22T09:37:59.078Z,22.99
2023-05-22T09:40:27.507Z,22.78
2023-05-22T09:42:54.134Z,22.66
2023-05-22T09:45:22.075Z,22.74
2023-05-22T09:47:49.215Z,22.83
2023-05-22T09:50:15.857Z,22.67
2023-05-22T09:52:44.672Z,22.66
2023-05-22T09:55:13.818Z,22.73
2023-05-22T09:57:43.186Z,22.77
2023-05-22T10:00:12.549Z,23.01
2023-05-22T10:02:44.152Z,22.94
2023-05-22T10:05:12.171Z,22.84
2023-05-22T10:07:43.647Z,22.51
2023-05-22T10:10:12.427Z,22.68
2023-05-22T10:12:44.412Z,22.85
2023-05-22T10:15:12.001Z,22.97
2023-05-22T10:17:39.880Z,23.18
2023-05-22T10:20:08.188Z,23.23
2023-05-22T10:22:36.440Z,23.29
2023-05-22T10:25:03.895Z,23.46
2023-05-22T10:27:30.464Z,23.39
2023-05-22T10:30:05.967Z,23.60
2023-05-22T10:32:42.372Z,23.68
2023-05-22T10:35:19.730Z,23.71
2023-05-22T10:37:50.147Z,23.64
2023-05-22T10:40:22.406Z,23.57
2023-05-22T10:42:49.115Z,23.76
2023-05-22T10:45:17.107Z,23.88
2023-05-22T10:47:43.852Z,23.91
2023-05-22T10:50:11.791Z,23.98
2023-05-22T10:52:39.519Z,23.67
2023-05-22T10:55:07.205Z,23.95
2023-05-22T10:57:34.107Z,24.01
2023-05-22T11:00:11.533Z,23.93
2023-05-22T11:02:42.574Z,23.83
2023-05-22T11:05:34.937Z,23.81
2023-05-22T11:08:11.972Z,23.70
2023-05-22T11:10:55.539Z,23.87
2023-05-22T11:13:28.240Z,23.68
2023-05-22T11:15:56.004Z,23.84
2023-05-22T11:18:24.140Z,23.98
2023-05-22T11:20:53.527Z,24.15
2023-05-22T11:23:20.188Z,24.26
2023-05-22T11:25:46.862Z,24.36
2023-05-22T11:28:13.603Z,24.25
2023-05-22T11:30:41.701Z,24.37
2023-05-22T11:33:08.856Z,23.97
2023-05-22T11:35:38.358Z,23.76
2023-05-22T11:38:05.484Z,23.93
2023-05-22T11:40:32.224Z,23.84
2023-05-22T11:42:58.857Z,23.68
2023-05-22T11:45:26.551Z,23.88
2023-05-22T11:47:53.196Z,23.71
2023-05-22T11:52:53.999Z,23.77
2023-05-22T11:55:20.497Z,23.97
2023-05-22T11:57:47.324Z,23.93
2023-05-22T12:00:15.143Z,24.05
2023-05-22T12:02:45.206Z,24.13
2023-05-22T12:05:12.148Z,24.01
2023-05-22T12:07:38.760Z,24.21
2023-05-22T12:10:07.249Z,24.33
2023-05-22T12:12:34.106Z,24.43
2023-05-22T12:15:00.780Z,24.37
2023-05-22T12:17:28.645Z,24.54
2023-05-22T12:19:55.375Z,24.57
2023-05-22T12:22:23.216Z,24.50
2023-05-22T12:24:52.717Z,24.65
2023-05-22T12:27:20.622Z,24.64
2023-05-22T12:29:47.337Z,24.69
2023-05-22T12:32:13.973Z,24.80
2023-05-22T12:34:44.441Z,24.64
2023-05-22T12:37:18.781Z,24.41
2023-05-22T12:39:53.667Z,24.65
2023-05-22T12:42:21.789Z,24.64
2023-05-22T12:44:48.603Z,24.77
2023-05-22T12:47:15.334Z,24.73
2023-05-22T12:49:41.886Z,24.71
2023-05-22T12:52:08.473Z,24.73
2023-05-22T12:54:35.043Z,25.02
2023-05-22T12:57:01.664Z,25.16
2023-05-22T12:59:29.558Z,25.26
2023-05-22T13:01:56.616Z,25.16
2023-05-22T13:04:23.233Z,25.32
2023-05-22T13:06:49.918Z,25.42
2023-05-22T13:09:16.472Z,25.54
2023-05-22T13:11:43.155Z,25.47
2023-05-22T13:14:09.773Z,25.54
2023-05-22T13:16:37.865Z,25.58
2023-05-22T13:19:04.730Z,25.76
2023-05-22T13:21:31.469Z,25.90
2023-05-22T13:23:57.991Z,25.68
2023-05-22T13:26:24.651Z,25.75
2023-05-22T13:28:51.170Z,26.01
2023-05-22T13:31:18.016Z,25.95
2023-05-22T13:33:45.959Z,26.23
2023-05-22T13:36:12.730Z,26.46
2023-05-22T13:38:39.281Z,26.56
2023-05-22T13:41:05.991Z,26.32
2023-05-22T13:43:32.540Z,26.28
2023-05-22T13:45:59.220Z,26.40
2023-05-22T13:48:25.775Z,26.37
2023-05-22T13:50:53.723Z,26.67
2023-05-22T13:53:20.367Z,26.56
2023-05-22T13:55:47.026Z,26.83
2023-05-22T13:58:13.807Z,26.91
2023-05-22T14:00:40.446Z,26.89
2023-05-22T14:03:07.208Z,27.23
2023-05-22T14:05:33.976Z,27.20
2023-05-22T14:08:01.858Z,27.27
2023-05-22T14:10:28.531Z,27.55
2023-05-22T14:12:55.054Z,27.10
2023-05-22T14:15:21.774Z,26.91
2023-05-22T14:17:48.436Z,27.28
2023-05-22T14:20:15.170Z,27.44
2023-05-22T14:22:55.942Z,27.62
2023-05-22T14:25:25.533Z,27.36
2023-05-22T14:27:52.064Z,27.33
2023-05-22T14:30:18.826Z,27.67
2023-05-22T14:32:45.453Z,27.66
2023-05-22T14:35:12.164Z,27.33
2023-05-22T14:37:38.718Z,27.55
2023-05-22T14:40:06.855Z,27.76
2023-05-22T14:42:36.414Z,27.93
2023-05-22T14:45:05.126Z,27.99
2023-05-22T14:47:31.738Z,28.08
2023-05-22T14:50:10.220Z,27.87
2023-05-22T14:52:44.647Z,28.09
2023-05-22T14:55:11.229Z,28.34
2023-05-22T14:57:39.135Z,28.55
2023-05-22T15:00:07.021Z,28.57
2023-05-22T15:02:33.798Z,28.55
2023-05-22T15:05:00.486Z,28.61
2023-05-22T15:07:35.973Z,28.46
2023-05-22T15:10:10.655Z,28.43
2023-05-22T15:12:38.592Z,28.60
2023-05-22T15:15:06.099Z,28.76
2023-05-22T15:17:32.819Z,28.90
2023-05-22T15:19:59.584Z,28.94
2023-05-22T15:22:26.114Z,28.90
2023-05-22T15:25:03.513Z,29.27
2023-05-22T15:27:30.172Z,29.18
2023-05-22T15:29:58.071Z,29.02
2023-05-22T15:32:24.798Z,28.86
2023-05-22T15:34:51.324Z,28.86
2023-05-22T15:37:18.168Z,28.56
2023-05-22T15:39:44.755Z,28.95
2023-05-22T15:42:11.344Z,28.98
2023-05-22T15:44:37.908Z,28.18
2023-05-22T15:47:06.254Z,28.72
2023-05-22T15:49:32.946Z,29.01
2023-05-22T15:51:59.670Z,29.20
2023-05-22T15:54:26.283Z,29.21
2023-05-22T15:56:53.022Z,29.01
2023-05-22T15:59:19.581Z,28.96
2023-05-22T16:01:46.286Z,28.92
2023-05-22T16:04:14.237Z,28.82
2023-05-22T16:06:41.089Z,29.08
2023-05-22T16:09:07.649Z,29.10
2023-05-22T16:11:34.306Z,29.46
2023-05-22T16:14:00.859Z,29.56
2023-05-22T16:16:27.683Z,29.62
2023-05-22T16:18:54.398Z,28.93
2023-05-22T16:21:22.383Z,28.90
2023-05-22T16:23:49.031Z,28.75
2023-05-22T16:26:15.718Z,28.60
2023-05-22T16:28:42.284Z,28.51
2023-05-22T16:31:08.966Z,28.16
2023-05-22T16:33:35.572Z,28.10
2023-05-22T16:36:02.272Z,27.79
2023-05-22T16:38:30.236Z,27.70
2023-05-22T16:40:56.837Z,27.46
2023-05-22T16:43:23.635Z,27.12
2023-05-22T16:45:50.313Z,26.99
2023-05-22T16:48:16.933Z,26.48
2023-05-22T16:50:43.664Z,26.32
2023-05-22T16:53:10.400Z,25.94
2023-05-22T16:55:38.798Z,25.58
2023-05-22T16:58:05.592Z,25.55
2023-05-22T17:00:32.465Z,25.48
2023-05-22T17:02:59.447Z,25.10
2023-05-22T17:05:26.112Z,25.11
2023-05-22T17:07:52.701Z,25.05
2023-05-22T17:10:19.304Z,24.62
2023-05-22T17:12:47.193Z,24.32
2023-05-22T17:15:13.857Z,24.34
2023-05-22T17:17:40.492Z,24.33
2023-05-22T17:20:08.204Z,23.97
2023-05-22T17:22:36.224Z,23.99
2023-05-22T17:25:02.912Z,23.91
2023-05-22T17:27:36.244Z,23.88
2023-05-22T17:30:05.994Z,23.58
2023-05-22T17:32:33.118Z,23.66
2023-05-22T17:35:00.000Z,23.37
2023-05-22T17:37:26.574Z,23.40
2023-05-22T17:39:53.299Z,23.40
2023-05-22T17:42:19.849Z,23.29
2023-05-22T17:44:46.481Z,23.51
2023-05-22T17:47:14.572Z,23.30
2023-05-22T17:49:41.145Z,23.57
2023-05-22T17:52:07.715Z,23.54
2023-05-22T17:54:34.659Z,23.15
2023-05-22T17:57:01.345Z,23.20
2023-05-22T17:59:28.079Z,23.04
2023-05-22T18:01:54.673Z,22.69
2023-05-22T18:04:22.756Z,22.68
2023-05-22T18:06:49.566Z,22.42
2023-05-22T18:09:16.446Z,22.53
2023-05-22T18:11:42.986Z,22.47
2023-05-22T18:14:09.749Z,22.36
2023-05-22T18:16:36.387Z,22.28
2023-05-22T18:19:03.112Z,22.08
2023-05-22T18:21:31.052Z,22.07
2023-05-22T18:23:57.791Z,22.03
2023-05-22T18:26:24.333Z,21.99
2023-05-22T18:28:50.976Z,21.88
2023-05-22T18:31:17.608Z,21.79
2023-05-22T18:33:44.407Z,21.80
2023-05-22T18:36:11.002Z,21.85
2023-05-22T18:38:38.992Z,21.79
2023-05-22T18:41:05.917Z,21.79
2023-05-22T18:43:32.561Z,21.73
2023-05-22T18:45:59.104Z,21.70
2023-05-22T18:48:25.865Z,21.74
2023-05-22T18:50:52.829Z,21.75
2023-05-22T18:53:21.778Z,21.70
2023-05-22T18:55:49.731Z,21.70
2023-05-22T18:58:16.400Z,21.66
2023-05-22T19:00:43.266Z,21.54
2023-05-22T19:03:10.243Z,21.46
2023-05-22T19:05:36.922Z,21.37
2023-05-22T19:08:04.069Z,21.32
2023-05-22T19:10:30.627Z,21.26
2023-05-22T19:12:58.660Z,21.16
2023-05-22T19:15:25.245Z,21.12
2023-05-22T19:17:51.848Z,20.98
2023-05-22T19:20:18.510Z,20.94
2023-05-22T19:22:45.127Z,20.77
2023-05-22T19:25:11.696Z,20.79
2023-05-22T19:27:39.290Z,20.73
2023-05-22T19:30:08.919Z,20.71
2023-05-22T19:32:35.531Z,20.64
2023-05-22T19:35:02.119Z,20.53
2023-05-22T19:37:28.735Z,20.31
2023-05-22T19:39:55.291Z,20.51
2023-05-22T19:42:22.040Z,20.46
2023-05-22T19:44:48.569Z,20.38
2023-05-22T19:47:16.539Z,20.33
2023-05-22T19:49:43.109Z,20.25
2023-05-22T19:52:09.764Z,20.10
2023-05-22T19:54:36.324Z,20.11
2023-05-22T19:57:03.254Z,19.92
2023-05-22T19:59:29.853Z,19.95
2023-05-22T20:01:56.589Z,19.92
2023-05-22T20:04:24.610Z,19.86
2023-05-22T20:06:51.577Z,19.81
2023-05-22T20:09:18.164Z,19.74
2023-05-22T20:11:44.924Z,19.64
2023-05-22T20:14:12.596Z,19.57
2023-05-22T20:16:39.258Z,19.50
2023-05-22T20:19:05.918Z,19.39
2023-05-22T20:21:33.875Z,19.32
2023-05-22T20:24:00.498Z,19.26
2023-05-22T20:26:27.101Z,19.12
2023-05-22T20:28:53.640Z,19.11
2023-05-22T20:31:20.366Z,19.04
2023-05-22T20:33:47.017Z,18.97
2023-05-22T20:36:13.632Z,18.90
2023-05-22T20:38:41.528Z,18.81
2023-05-22T20:41:09.638Z,18.75
2023-05-22T20:43:36.519Z,18.70
2023-05-22T20:46:03.234Z,18.63
2023-05-22T20:48:29.929Z,18.57
2023-05-22T20:50:56.577Z,18.48
2023-05-22T20:53:23.147Z,18.37
2023-05-22T20:55:51.190Z,18.37
2023-05-22T20:58:17.731Z,18.31
2023-05-22T21:00:44.578Z,18.29
2023-05-22T21:03:11.348Z,18.23
2023-05-22T21:05:38.004Z,18.16
2023-05-22T21:08:04.647Z,18.14
2023-05-22T21:10:31.335Z,18.12
2023-05-22T21:12:59.230Z,18.10
2023-05-22T21:15:25.908Z,18.06
2023-05-22T21:17:52.569Z,18.01
2023-05-22T21:20:19.273Z,17.95
2023-05-22T21:22:45.822Z,17.94
2023-05-22T21:25:12.449Z,17.90
2023-05-22T21:27:39.060Z,17.84
2023-05-22T21:30:08.346Z,17.78
2023-05-22T21:32:34.959Z,17.73
2023-05-22T21:35:01.581Z,17.67
2023-05-22T21:37:28.119Z,17.61
2023-05-22T21:39:54.791Z,17.56
2023-05-22T21:42:21.763Z,17.50
2023-05-22T21:44:48.382Z,17.44
2023-05-22T21:47:16.393Z,17.41
2023-05-22T21:49:43.020Z,17.36
2023-05-22T21:52:09.563Z,17.31
2023-05-22T21:54:36.325Z,17.24
2023-05-22T21:57:03.001Z,17.20
2023-05-22T21:59:29.748Z,17.16
2023-05-22T22:01:56.397Z,17.11
2023-05-22T22:04:24.485Z,17.08
2023-05-22T22:06:51.030Z,17.03
2023-05-22T22:09:17.702Z,16.96
2023-05-22T22:11:44.247Z,16.90
2023-05-22T22:14:10.901Z,16.84
2023-05-22T22:16:37.575Z,16.79
2023-05-22T22:19:04.342Z,16.75
2023-05-22T22:21:32.340Z,16.66
2023-05-22T22:23:59.173Z,16.65
2023-05-22T22:26:25.801Z,16.61
2023-05-22T22:28:52.550Z,16.59
2023-05-22T22:31:19.141Z,16.53
2023-05-22T22:33:45.814Z,16.49
2023-05-22T22:36:12.457Z,16.42
2023-05-22T22:38:40.440Z,16.38
2023-05-22T22:41:07.040Z,16.32
2023-05-22T22:43:33.665Z,16.24
2023-05-22T22:46:00.643Z,16.19
2023-05-22T22:48:27.291Z,16.12
2023-05-22T22:50:53.909Z,16.07
2023-05-22T22:53:20.537Z,16.01
2023-05-22T22:55:48.746Z,16.02
2023-05-22T22:58:15.801Z,15.95
2023-05-22T23:00:42.346Z,15.95
2023-05-22T23:03:08.977Z,15.94
2023-05-22T23:05:35.828Z,15.89
2023-05-22T23:08:02.606Z,15.82
2023-05-22T23:10:29.170Z,15.82
2023-05-22T23:12:57.579Z,15.72
2023-05-22T23:15:24.413Z,15.86
2023-05-22T23:17:52.024Z,15.90
2023-05-22T23:20:18.753Z,15.73
2023-05-22T23:22:45.489Z,15.63
2023-05-22T23:25:12.109Z,15.72
2023-05-22T23:27:38.730Z,15.69
2023-05-22T23:30:08.133Z,15.66
2023-05-22T23:32:34.777Z,15.62
2023-05-22T23:35:01.412Z,15.63
2023-05-22T23:37:28.063Z,15.56
2023-05-22T23:39:54.628Z,15.39
2023-05-22T23:42:21.226Z,15.43
2023-05-22T23:44:47.986Z,15.46
2023-05-22T23:47:16.004Z,15.49
2023-05-22T23:49:42.604Z,15.42
2023-05-22T23:52:09.189Z,15.41
2023-05-22T23:54:35.733Z,15.41
2023-05-22T23:57:02.380Z,15.43
2023-05-22T23:59:28.946Z,15.45
